createdAt,value
2018-03-26T00:00:41.321Z,-0.07
2018-03-26T00:01:41.319Z,-0.1
2018-03-26T00:02:41.329Z,-0.07
2018-03-26T00:03:41.320Z,0.03
2018-03-26T00:04:41.331Z,-0.09
2018-03-26T00:05:41.318Z,-0.05
2018-03-26T00:06:41.386Z,-0.02
2018-03-26T00:07:41.320Z,-0.12
2018-03-26T00:08:41.328Z,-0.05
2018-03-26T00:09:41.339Z,0.09
2018-03-26T00:10:41.340Z,0.16
2018-03-26T00:11:41.349Z,0.14
2018-03-26T00:12:41.357Z,0.06
2018-03-26T00:13:41.352Z,0.12
2018-03-26T00:14:41.359Z,0.24
2018-03-26T00:15:41.366Z,0.23
2018-03-26T00:16:41.388Z,0.2
2018-03-26T00:17:41.364Z,0.15
2018-03-26T00:18:41.652Z,0.15
2018-03-26T00:19:41.375Z,0.1
2018-03-26T00:20:41.378Z,0.26
2018-03-26T00:21:41.379Z,0.25
2018-03-26T00:22:41.376Z,0.2
2018-03-26T00:23:41.423Z,0.14
2018-03-26T00:24:41.380Z,-0.03
2018-03-26T00:25:41.383Z,-0.04
2018-03-26T00:26:41.381Z,0.03
2018-03-26T00:27:41.367Z,-0.17
2018-03-26T00:28:41.385Z,-0.05
2018-03-26T00:29:41.398Z,-0.13
2018-03-26T00:30:41.401Z,-0.1
2018-03-26T00:31:41.392Z,0.06
2018-03-26T00:32:41.420Z,0.01
2018-03-26T00:33:41.390Z,-0.04
2018-03-26T00:34:41.416Z,0.04
2018-03-26T00:35:41.411Z,-0.16
2018-03-26T00:36:41.419Z,-0.27
2018-03-26T00:37:41.421Z,-0.21
2018-03-26T00:38:41.430Z,-0.16
2018-03-26T00:39:41.452Z,-0.13
2018-03-26T00:40:41.421Z,-0.04
2018-03-26T00:41:41.493Z,-0.14
2018-03-26T00:42:41.444Z,0
2018-03-26T00:43:41.440Z,-0.18
2018-03-26T00:44:41.490Z,-0.17
2018-03-26T00:45:41.449Z,-0.21
2018-03-26T00:46:41.465Z,-0.1
2018-03-26T00:47:41.454Z,-0.18
2018-03-26T00:48:41.465Z,-0.15
2018-03-26T00:49:41.463Z,-0.12
2018-03-26T00:50:41.465Z,0.06
2018-03-26T00:51:41.469Z,-0.13
2018-03-26T00:52:41.461Z,-0.17
2018-03-26T00:53:41.468Z,-0.09
2018-03-26T00:54:41.492Z,0.12
2018-03-26T00:55:41.482Z,0.15
2018-03-26T00:56:41.480Z,0.19
2018-03-26T00:57:41.480Z,-0.01
2018-03-26T00:58:41.520Z,0.02
2018-03-26T00:59:41.496Z,0.03
2018-03-26T01:00:41.492Z,0.01
2018-03-26T01:01:41.537Z,-0.04
2018-03-26T01:02:41.498Z,-0.01
2018-03-26T01:03:41.516Z,0
2018-03-26T01:04:41.509Z,-0.06
2018-03-26T01:05:41.563Z,0.07
2018-03-26T01:06:41.522Z,0.04
2018-03-26T01:07:41.520Z,0.02
2018-03-26T01:08:41.525Z,0.1
2018-03-26T01:09:41.522Z,0.27
2018-03-26T01:10:41.513Z,0.15
2018-03-26T01:11:41.563Z,0.17
2018-03-26T01:12:41.527Z,0.08
2018-03-26T01:13:41.541Z,0.06
2018-03-26T01:14:41.544Z,0
2018-03-26T01:15:41.566Z,0.01
2018-03-26T01:16:41.554Z,0.02
2018-03-26T01:17:41.549Z,0.15
2018-03-26T01:18:41.554Z,0.22
2018-03-26T01:19:41.574Z,0.09
2018-03-26T01:20:41.571Z,0.09
2018-03-26T01:21:41.582Z,0.08
2018-03-26T01:22:41.581Z,0.44
2018-03-26T01:23:41.556Z,0.42
2018-03-26T01:24:41.582Z,0.51
2018-03-26T01:25:41.572Z,0.51
2018-03-26T01:26:41.561Z,0.58
2018-03-26T01:27:41.581Z,0.62
2018-03-26T01:28:41.625Z,0.4
2018-03-26T01:29:41.662Z,0.26
2018-03-26T01:30:41.594Z,0.23
2018-03-26T01:31:41.591Z,0.46
2018-03-26T01:32:41.616Z,0.43
2018-03-26T01:33:41.629Z,0.54
2018-03-26T01:34:41.612Z,0.57
2018-03-26T01:35:41.618Z,0.59
2018-03-26T01:36:41.633Z,0.49
2018-03-26T01:37:41.603Z,0.35
2018-03-26T01:38:41.650Z,0.37
2018-03-26T01:39:41.834Z,0.32
2018-03-26T01:40:41.652Z,0.5
2018-03-26T01:41:41.623Z,0.52
2018-03-26T01:42:41.649Z,0.44
2018-03-26T01:43:41.624Z,0.46
2018-03-26T01:44:41.644Z,0.45
2018-03-26T01:45:41.652Z,0.44
2018-03-26T01:46:41.630Z,0.33
2018-03-26T01:47:41.625Z,0.5
2018-03-26T01:48:41.640Z,0.4
2018-03-26T01:49:41.629Z,0.38
2018-03-26T01:50:41.650Z,0.52
2018-03-26T01:51:41.630Z,0.63
2018-03-26T01:52:41.645Z,0.65
2018-03-26T01:53:41.639Z,0.51
2018-03-26T01:54:41.644Z,0.44
2018-03-26T01:55:41.673Z,0.49
2018-03-26T01:56:41.666Z,0.69
2018-03-26T01:57:41.662Z,0.5
2018-03-26T01:58:41.690Z,0.49
2018-03-26T01:59:41.645Z,0.87
2018-03-26T02:00:41.663Z,0.86
2018-03-26T02:01:41.703Z,0.89
2018-03-26T02:02:41.727Z,0.84
2018-03-26T02:03:41.647Z,0.64
2018-03-26T02:04:41.817Z,0.75
2018-03-26T02:05:41.728Z,0.85
2018-03-26T02:06:41.667Z,0.81
2018-03-26T02:07:41.677Z,0.75
2018-03-26T02:08:41.692Z,0.85
2018-03-26T02:09:41.694Z,0.89
2018-03-26T02:10:41.685Z,0.65
2018-03-26T02:11:41.707Z,0.55
2018-03-26T02:12:41.749Z,0.62
2018-03-26T02:13:41.708Z,0.68
2018-03-26T02:14:41.742Z,0.58
2018-03-26T02:15:41.718Z,0.55
2018-03-26T02:16:41.727Z,0.56
2018-03-26T02:17:41.715Z,0.51
2018-03-26T02:18:41.724Z,0.51
2018-03-26T02:19:41.727Z,0.43
2018-03-26T02:20:41.724Z,0.49
2018-03-26T02:21:41.741Z,0.56
2018-03-26T02:22:41.751Z,0.54
2018-03-26T02:23:41.759Z,0.69
2018-03-26T02:24:41.769Z,0.68
2018-03-26T02:25:41.763Z,0.91
2018-03-26T02:26:41.974Z,0.97
2018-03-26T02:27:41.748Z,0.82
2018-03-26T02:28:41.748Z,0.56
2018-03-26T02:29:41.767Z,0.76
2018-03-26T02:30:41.781Z,0.93
2018-03-26T02:31:41.798Z,0.98
2018-03-26T02:32:41.784Z,0.93
2018-03-26T02:33:41.780Z,0.91
2018-03-26T02:34:41.801Z,0.96
2018-03-26T02:35:41.802Z,0.78
2018-03-26T02:36:41.810Z,0.79
2018-03-26T02:37:41.815Z,0.77
2018-03-26T02:38:41.846Z,0.79
2018-03-26T02:39:41.820Z,0.76
2018-03-26T02:40:41.868Z,0.86
2018-03-26T02:41:41.874Z,0.74
2018-03-26T02:42:41.834Z,0.67
2018-03-26T02:43:41.809Z,0.62
2018-03-26T02:44:41.833Z,0.69
2018-03-26T02:45:41.834Z,0.59
2018-03-26T02:46:41.833Z,0.52
2018-03-26T02:47:41.826Z,0.62
2018-03-26T02:48:41.845Z,0.79
2018-03-26T02:49:41.839Z,0.61
2018-03-26T02:50:42.152Z,0.67
2018-03-26T02:51:41.830Z,0.91
2018-03-26T02:52:41.854Z,0.9
2018-03-26T02:53:41.884Z,0.96
2018-03-26T02:54:41.854Z,0.87
2018-03-26T02:55:41.843Z,0.92
2018-03-26T02:56:41.870Z,0.93
2018-03-26T02:57:41.862Z,0.84
2018-03-26T02:58:41.867Z,1
2018-03-26T02:59:41.859Z,1.02
2018-03-26T03:00:41.865Z,1.02
2018-03-26T03:01:41.891Z,0.9
2018-03-26T03:02:41.869Z,0.99
2018-03-26T03:03:41.873Z,0.98
2018-03-26T03:04:41.872Z,1
2018-03-26T03:05:41.882Z,1.03
2018-03-26T03:06:41.901Z,0.94
2018-03-26T03:07:41.873Z,1
2018-03-26T03:08:41.880Z,0.9
2018-03-26T03:09:41.885Z,0.93
2018-03-26T03:10:41.892Z,0.76
2018-03-26T03:11:41.887Z,0.67
2018-03-26T03:12:41.894Z,0.63
2018-03-26T03:13:41.897Z,0.9
2018-03-26T03:14:41.886Z,0.84
2018-03-26T03:15:41.890Z,0.82
2018-03-26T03:16:41.884Z,0.74
2018-03-26T03:17:41.907Z,0.61
2018-03-26T03:18:41.886Z,0.64
2018-03-26T03:19:41.904Z,0.87
2018-03-26T03:20:41.911Z,0.7
2018-03-26T03:21:41.900Z,0.93
2018-03-26T03:22:41.889Z,1.03
2018-03-26T03:23:41.917Z,1.05
2018-03-26T03:24:41.906Z,0.82
2018-03-26T03:25:41.925Z,0.9
2018-03-26T03:26:41.917Z,0.73
2018-03-26T03:27:41.908Z,0.96
2018-03-26T03:28:41.925Z,1.01
2018-03-26T03:29:42.204Z,1.07
2018-03-26T03:30:41.969Z,1.05
2018-03-26T03:31:42.050Z,0.96
2018-03-26T03:32:41.990Z,0.81
2018-03-26T03:33:41.938Z,1.01
2018-03-26T03:34:41.953Z,0.83
2018-03-26T03:35:41.935Z,0.93
2018-03-26T03:36:42.007Z,0.75
2018-03-26T03:37:41.954Z,0.73
2018-03-26T03:38:41.972Z,0.7
2018-03-26T03:39:41.975Z,0.76
2018-03-26T03:40:41.965Z,0.77
2018-03-26T03:41:41.992Z,0.74
2018-03-26T03:42:41.972Z,0.69
2018-03-26T03:43:41.956Z,1.2
2018-03-26T03:44:41.975Z,1.19
2018-03-26T03:45:41.964Z,1.22
2018-03-26T03:46:41.970Z,1.14
2018-03-26T03:47:41.982Z,1.06
2018-03-26T03:48:41.994Z,1.07
2018-03-26T03:49:41.975Z,0.91
2018-03-26T03:50:42.102Z,0.99
2018-03-26T03:51:41.982Z,0.82
2018-03-26T03:52:42.000Z,0.77
2018-03-26T03:53:41.990Z,0.8
2018-03-26T03:54:41.995Z,0.9
2018-03-26T03:55:42.033Z,1.13
2018-03-26T03:56:42.004Z,0.87
2018-03-26T03:57:42.013Z,1.15
2018-03-26T03:58:42.068Z,1.28
2018-03-26T03:59:42.020Z,1.18
2018-03-26T04:00:42.024Z,1.07
2018-03-26T04:01:42.039Z,1.25
2018-03-26T04:02:42.200Z,1.15
2018-03-26T04:03:42.036Z,1.17
2018-03-26T04:04:42.037Z,1.16
2018-03-26T04:05:42.030Z,1.22
2018-03-26T04:06:42.032Z,1.03
2018-03-26T04:07:42.072Z,0.97
2018-03-26T04:08:42.039Z,1.16
2018-03-26T04:09:42.041Z,1.13
2018-03-26T04:10:42.037Z,1.12
2018-03-26T04:11:42.050Z,1.03
2018-03-26T04:12:42.050Z,0.89
2018-03-26T04:13:42.068Z,1.14
2018-03-26T04:14:42.065Z,1.17
2018-03-26T04:15:42.069Z,1.28
2018-03-26T04:16:42.050Z,1.3
2018-03-26T04:17:42.054Z,1.11
2018-03-26T04:18:42.079Z,1.18
2018-03-26T04:19:42.075Z,1.25
2018-03-26T04:20:42.063Z,1.22
2018-03-26T04:21:42.054Z,1.15
2018-03-26T04:22:42.058Z,1.16
2018-03-26T04:23:42.087Z,1.12
2018-03-26T04:24:42.073Z,0.99
2018-03-26T04:25:42.068Z,0.89
2018-03-26T04:26:42.086Z,0.93
2018-03-26T04:27:42.100Z,1.22
2018-03-26T04:28:42.122Z,1.27
2018-03-26T04:29:42.139Z,1.17
2018-03-26T04:30:42.107Z,1.31
2018-03-26T04:31:42.132Z,1.13
2018-03-26T04:32:42.108Z,1.3
2018-03-26T04:33:42.113Z,1.35
2018-03-26T04:34:42.110Z,1.28
2018-03-26T04:35:42.128Z,1.29
2018-03-26T04:36:42.128Z,1.26
2018-03-26T04:37:42.119Z,1.27
2018-03-26T04:38:42.119Z,1.07
2018-03-26T04:39:42.110Z,0.97
2018-03-26T04:40:42.136Z,1.03
2018-03-26T04:41:42.413Z,1.13
2018-03-26T04:42:42.140Z,1.01
2018-03-26T04:43:42.130Z,0.97
2018-03-26T04:44:42.137Z,1.24
2018-03-26T04:45:42.149Z,1.32
2018-03-26T04:46:42.155Z,1.21
2018-03-26T04:47:42.182Z,1.37
2018-03-26T04:48:42.153Z,1.16
2018-03-26T04:49:42.173Z,1.43
2018-03-26T04:50:42.157Z,1.29
2018-03-26T04:51:42.165Z,1.12
2018-03-26T04:52:42.157Z,1.32
2018-03-26T04:53:42.156Z,1.21
2018-03-26T04:54:42.185Z,1.13
2018-03-26T04:55:42.178Z,1.05
2018-03-26T04:56:42.178Z,0.98
2018-03-26T04:57:42.181Z,1.05
2018-03-26T04:58:42.181Z,1
2018-03-26T04:59:42.166Z,1.25
2018-03-26T05:00:42.179Z,1.12
2018-03-26T05:01:42.192Z,1.08
2018-03-26T05:02:42.192Z,1.14
2018-03-26T05:03:42.195Z,1.11
2018-03-26T05:04:42.198Z,1.15
2018-03-26T05:05:42.199Z,1.22
2018-03-26T05:06:42.204Z,1.4
2018-03-26T05:07:42.199Z,1.21
2018-03-26T05:08:42.203Z,1.29
2018-03-26T05:09:42.214Z,1.15
2018-03-26T05:10:42.206Z,1.35
2018-03-26T05:11:42.209Z,1.37
2018-03-26T05:12:42.247Z,1.37
2018-03-26T05:13:42.212Z,1.38
2018-03-26T05:14:42.245Z,1.32
2018-03-26T05:15:42.236Z,1.35
2018-03-26T05:16:42.228Z,1.26
2018-03-26T05:17:42.227Z,1.35
2018-03-26T05:18:42.228Z,1.37
2018-03-26T05:19:42.245Z,1.32
2018-03-26T05:20:42.236Z,1.41
2018-03-26T05:21:42.259Z,1.42
2018-03-26T05:22:42.544Z,1.55
2018-03-26T05:23:42.249Z,1.46
2018-03-26T05:24:42.251Z,1.49
2018-03-26T05:25:42.249Z,1.42
2018-03-26T05:26:42.258Z,1.28
2018-03-26T05:27:42.304Z,1.47
2018-03-26T05:28:42.271Z,1.48
2018-03-26T05:29:42.337Z,1.4
2018-03-26T05:30:42.273Z,1.54
2018-03-26T05:31:42.268Z,1.63
2018-03-26T05:32:42.569Z,1.44
2018-03-26T05:33:42.273Z,1.44
2018-03-26T05:34:42.294Z,1.35
2018-03-26T05:35:42.304Z,1.43
2018-03-26T05:36:42.297Z,1.45
2018-03-26T05:37:42.326Z,1.55
2018-03-26T05:38:42.293Z,1.37
2018-03-26T05:39:42.303Z,1.41
2018-03-26T05:40:42.308Z,1.52
2018-03-26T05:41:42.315Z,1.37
2018-03-26T05:42:42.316Z,1.55
2018-03-26T05:43:42.328Z,1.58
2018-03-26T05:44:42.321Z,1.56
2018-03-26T05:45:42.330Z,1.57
2018-03-26T05:46:42.315Z,1.6
2018-03-26T05:47:42.322Z,1.51
2018-03-26T05:48:42.324Z,1.42
2018-03-26T05:49:42.331Z,1.54
2018-03-26T05:50:42.343Z,1.46
2018-03-26T05:51:42.349Z,1.36
2018-03-26T05:52:42.370Z,1.34
2018-03-26T05:53:42.366Z,1.48
2018-03-26T05:54:42.353Z,1.45
2018-03-26T05:55:42.389Z,1.45
2018-03-26T05:56:42.440Z,1.51
2018-03-26T05:57:42.403Z,1.38
2018-03-26T05:58:42.389Z,1.51
2018-03-26T05:59:42.382Z,1.35
2018-03-26T06:00:42.386Z,1.42
2018-03-26T06:01:42.382Z,1.37
2018-03-26T06:02:42.394Z,1.41
2018-03-26T06:03:42.397Z,1.62
2018-03-26T06:04:42.396Z,1.58
2018-03-26T06:05:42.394Z,1.57
2018-03-26T06:06:42.406Z,1.47
2018-03-26T06:07:42.408Z,1.55
2018-03-26T06:08:42.424Z,1.53
2018-03-26T06:09:42.412Z,1.53
2018-03-26T06:10:42.446Z,1.75
2018-03-26T06:11:42.427Z,1.67
2018-03-26T06:12:42.432Z,1.77
2018-03-26T06:13:42.427Z,1.74
2018-03-26T06:14:42.440Z,1.6
2018-03-26T06:15:42.438Z,1.69
2018-03-26T06:16:42.435Z,1.76
2018-03-26T06:17:42.443Z,1.72
2018-03-26T06:18:42.434Z,1.53
2018-03-26T06:19:42.446Z,1.72
2018-03-26T06:20:42.458Z,1.57
2018-03-26T06:21:42.471Z,1.53
2018-03-26T06:22:42.463Z,1.5
2018-03-26T06:23:42.459Z,1.83
2018-03-26T06:24:42.465Z,1.88
2018-03-26T06:25:42.486Z,1.87
2018-03-26T06:26:42.476Z,1.75
2018-03-26T06:27:42.481Z,1.61
2018-03-26T06:28:42.494Z,1.56
2018-03-26T06:29:42.490Z,1.65
2018-03-26T06:30:42.821Z,1.66
2018-03-26T06:31:42.509Z,1.62
2018-03-26T06:32:42.488Z,1.81
2018-03-26T06:33:42.503Z,1.86
2018-03-26T06:34:42.500Z,1.73
2018-03-26T06:35:42.519Z,1.61
2018-03-26T06:36:42.521Z,1.7
2018-03-26T06:37:42.509Z,1.74
2018-03-26T06:38:42.527Z,1.61
2018-03-26T06:39:42.515Z,1.67
2018-03-26T06:40:42.529Z,1.82
2018-03-26T06:41:42.516Z,1.84
2018-03-26T06:42:42.519Z,1.87
2018-03-26T06:43:42.530Z,1.79
2018-03-26T06:44:42.536Z,1.63
2018-03-26T06:45:42.604Z,1.55
2018-03-26T06:46:42.776Z,1.56
2018-03-26T06:47:42.539Z,1.86
2018-03-26T06:48:42.542Z,1.74
2018-03-26T06:49:42.563Z,1.65
2018-03-26T06:50:42.603Z,1.85
2018-03-26T06:51:42.570Z,1.84
2018-03-26T06:52:42.563Z,1.97
2018-03-26T06:53:42.574Z,2.04
2018-03-26T06:54:42.580Z,2.02
2018-03-26T06:55:42.576Z,1.84
2018-03-26T06:56:42.834Z,1.92
2018-03-26T06:57:42.568Z,2.03
2018-03-26T06:58:42.581Z,1.91
2018-03-26T06:59:42.571Z,1.82
2018-03-26T07:00:42.572Z,1.87
2018-03-26T07:01:42.587Z,1.86
2018-03-26T07:02:42.574Z,2
2018-03-26T07:03:42.584Z,2.01
2018-03-26T07:04:42.594Z,1.82
2018-03-26T07:05:42.582Z,1.91
2018-03-26T07:06:42.762Z,2
2018-03-26T07:07:42.728Z,2.04
2018-03-26T07:08:42.604Z,1.97
2018-03-26T07:09:42.610Z,1.96
2018-03-26T07:10:42.604Z,1.93
2018-03-26T07:11:42.607Z,1.9
2018-03-26T07:12:42.638Z,2.03
2018-03-26T07:13:42.601Z,2.02
2018-03-26T07:14:42.665Z,2.04
2018-03-26T07:15:42.614Z,1.94
2018-03-26T07:16:42.629Z,2.19
2018-03-26T07:17:42.622Z,2.19
2018-03-26T07:18:42.628Z,2.33
2018-03-26T07:19:42.626Z,2.31
2018-03-26T07:20:42.650Z,2.28
2018-03-26T07:21:42.944Z,2.35
2018-03-26T07:22:42.642Z,2.34
2018-03-26T07:23:42.652Z,2.2
2018-03-26T07:24:42.641Z,2.39
2018-03-26T07:25:42.663Z,2.27
2018-03-26T07:26:42.645Z,2.3
2018-03-26T07:27:42.655Z,2.15
2018-03-26T07:28:42.652Z,2.2
2018-03-26T07:29:42.643Z,2.38
2018-03-26T07:30:42.681Z,2.2
2018-03-26T07:31:42.657Z,2.31
2018-03-26T07:32:42.712Z,2.16
2018-03-26T07:33:42.663Z,2.41
2018-03-26T07:34:42.685Z,2.34
2018-03-26T07:35:42.678Z,2.39
2018-03-26T07:36:42.677Z,2.18
2018-03-26T07:37:42.709Z,2.46
2018-03-26T07:38:42.685Z,2.4
2018-03-26T07:39:42.679Z,2.36
2018-03-26T07:40:42.681Z,2.49
2018-03-26T07:41:42.696Z,2.42
2018-03-26T07:42:42.685Z,2.46
2018-03-26T07:43:42.696Z,2.44
2018-03-26T07:44:42.691Z,2.41
2018-03-26T07:45:42.682Z,2.41
2018-03-26T07:46:42.690Z,2.45
2018-03-26T07:47:42.705Z,2.48
2018-03-26T07:48:42.704Z,2.5
2018-03-26T07:49:42.708Z,2.47
2018-03-26T07:50:42.711Z,2.49
2018-03-26T07:51:42.732Z,2.45
2018-03-26T07:52:42.724Z,2.44
2018-03-26T07:53:42.728Z,2.47
2018-03-26T07:54:42.736Z,2.4
2018-03-26T07:55:42.733Z,2.51
2018-03-26T07:56:42.748Z,2.52
2018-03-26T07:57:42.722Z,2.48
2018-03-26T07:58:42.746Z,2.46
2018-03-26T07:59:42.750Z,2.49
2018-03-26T08:00:42.721Z,2.39
2018-03-26T08:01:42.733Z,2.41
2018-03-26T08:02:42.732Z,2.45
2018-03-26T08:03:42.740Z,2.42
2018-03-26T08:04:42.754Z,2.42
2018-03-26T08:05:42.757Z,2.44
2018-03-26T08:06:42.748Z,2.46
2018-03-26T08:07:42.756Z,2.46
2018-03-26T08:08:42.755Z,2.39
2018-03-26T08:09:42.754Z,2.39
2018-03-26T08:10:42.771Z,2.4
2018-03-26T08:11:42.776Z,2.44
2018-03-26T08:12:42.779Z,2.53
2018-03-26T08:13:42.788Z,2.43
2018-03-26T08:14:42.790Z,2.34
2018-03-26T08:15:42.788Z,2.41
2018-03-26T08:16:42.976Z,2.25
2018-03-26T08:17:42.790Z,2.31
2018-03-26T08:18:42.797Z,2.22
2018-03-26T08:19:42.805Z,2.27
2018-03-26T08:20:42.816Z,2.22
2018-03-26T08:21:42.794Z,2.28
2018-03-26T08:22:42.808Z,2.31
2018-03-26T08:23:42.973Z,2.31
2018-03-26T08:24:42.840Z,2.32
2018-03-26T08:25:42.846Z,2.28
2018-03-26T08:26:42.829Z,2.29
2018-03-26T08:27:42.822Z,2.19
2018-03-26T08:28:42.841Z,2.45
2018-03-26T08:29:42.829Z,2.16
2018-03-26T08:30:42.842Z,2.17
2018-03-26T08:31:42.844Z,2.18
2018-03-26T08:32:42.848Z,2.28
2018-03-26T08:33:42.874Z,2.25
2018-03-26T08:34:42.852Z,2.29
2018-03-26T08:35:42.850Z,2.28
2018-03-26T08:36:42.904Z,2.23
2018-03-26T08:37:42.858Z,2.22
2018-03-26T08:38:42.891Z,2.12
2018-03-26T08:39:42.876Z,2.01
2018-03-26T08:40:42.909Z,2.1
2018-03-26T08:41:42.880Z,2.1
2018-03-26T08:42:42.880Z,2.23
2018-03-26T08:43:42.940Z,2.26
2018-03-26T08:44:42.883Z,2.17
2018-03-26T08:45:42.913Z,2.22
2018-03-26T08:48:49.083Z,2.04
2018-03-26T08:49:43.157Z,2.18
2018-03-26T08:50:43.206Z,2.23
2018-03-26T08:51:42.918Z,2.17
2018-03-26T08:52:42.910Z,2.18
2018-03-26T08:53:42.918Z,2.27
2018-03-26T08:54:42.928Z,2.2
2018-03-26T08:55:42.948Z,2.34
2018-03-26T08:56:42.916Z,2.35
2018-03-26T08:57:42.912Z,2.35
2018-03-26T08:58:42.915Z,2.28
2018-03-26T08:59:42.918Z,2.26
2018-03-26T09:00:42.937Z,2.21
2018-03-26T09:01:42.937Z,2.23
2018-03-26T09:02:42.934Z,2.16
2018-03-26T09:03:42.938Z,2.22
2018-03-26T09:04:42.948Z,2.3
2018-03-26T09:05:42.950Z,2.23
2018-03-26T09:06:42.955Z,2.36
2018-03-26T09:07:42.930Z,2.33
2018-03-26T09:08:42.956Z,2.3
2018-03-26T09:09:42.949Z,2.35
2018-03-26T09:10:42.968Z,2.31
2018-03-26T09:11:42.962Z,2.38
2018-03-26T09:12:42.972Z,2.42
2018-03-26T09:13:42.972Z,2.31
2018-03-26T09:14:43.015Z,2.37
2018-03-26T09:15:42.976Z,2.38
2018-03-26T09:16:42.969Z,2.37
2018-03-26T09:17:42.957Z,2.2
2018-03-26T09:18:42.958Z,2.32
2018-03-26T09:20:42.989Z,2.39
2018-03-26T09:21:43.000Z,2.27
2018-03-26T09:22:42.989Z,2.35
2018-03-26T09:23:42.993Z,2.35
2018-03-26T09:24:42.983Z,2.38
2018-03-26T09:25:43.034Z,2.38
2018-03-26T09:26:43.041Z,2.38
2018-03-26T09:27:43.022Z,2.32
2018-03-26T09:28:43.028Z,2.42
2018-03-26T09:29:43.069Z,2.51
2018-03-26T09:30:43.028Z,2.52
2018-03-26T09:31:43.028Z,2.47
2018-03-26T09:32:43.086Z,2.38
2018-03-26T09:33:43.044Z,2.47
2018-03-26T09:34:43.050Z,2.52
2018-03-26T09:35:43.039Z,2.52
2018-03-26T09:36:43.035Z,2.54
2018-03-26T09:37:43.083Z,2.44
2018-03-26T09:38:43.089Z,2.49
2018-03-26T09:39:43.066Z,2.54
2018-03-26T09:40:43.059Z,2.54
2018-03-26T09:41:43.070Z,2.46
2018-03-26T09:42:43.130Z,2.5
2018-03-26T09:43:43.073Z,2.27
2018-03-26T09:44:43.075Z,2.38
2018-03-26T09:45:43.072Z,2.27
2018-03-26T09:46:43.089Z,2.27
2018-03-26T09:47:43.312Z,2.08
2018-03-26T09:48:43.080Z,2.23
2018-03-26T09:49:43.085Z,2.07
2018-03-26T09:50:43.090Z,2.05
2018-03-26T09:51:43.094Z,2.13
2018-03-26T09:52:43.113Z,1.95
2018-03-26T11:47:14.733Z,0.99
2018-03-26T11:48:14.725Z,0.99
2018-03-26T11:49:15.258Z,0.96
2018-03-26T11:50:18.699Z,0.87
2018-03-26T11:51:16.007Z,1.07
2018-03-26T11:52:17.426Z,1.09
2018-03-26T11:53:18.075Z,1.04
2018-03-26T11:54:18.083Z,0.98
2018-03-26T11:55:18.068Z,1
2018-03-26T11:56:18.078Z,1.05
2018-03-26T11:57:59.737Z,1.04
2018-03-26T11:58:59.730Z,0.9
2018-03-26T11:59:59.727Z,1.18
2018-03-26T12:00:59.722Z,0.95
2018-03-26T12:01:59.722Z,1.07
2018-03-26T12:02:59.718Z,1.01
2018-03-26T12:03:59.715Z,0.92
2018-03-26T12:04:59.739Z,0.92
2018-03-26T12:05:59.712Z,0.86
2018-03-26T12:06:59.717Z,0.94
2018-03-26T12:07:59.707Z,0.93
2018-03-26T12:08:59.708Z,0.89
2018-03-26T12:09:59.703Z,0.98
2018-03-26T12:10:59.708Z,1.04
2018-03-26T12:11:59.713Z,1.1
2018-03-26T12:12:59.708Z,1.06
2018-03-26T12:13:59.709Z,1.02
2018-03-26T12:14:59.705Z,1.06
2018-03-26T12:15:59.716Z,1.05
2018-03-26T12:16:59.705Z,1.04
2018-03-26T12:17:59.696Z,1.05
2018-03-26T12:18:59.693Z,1.13
2018-03-26T12:19:59.691Z,1.24
2018-03-26T12:20:59.709Z,1.27
2018-03-26T12:21:59.700Z,1.09
2018-03-26T12:23:00.077Z,1.04
2018-03-26T12:23:59.708Z,1.12
2018-03-26T12:24:59.698Z,1.12
2018-03-26T12:25:59.679Z,1.16
2018-03-26T12:26:59.702Z,1.18
2018-03-26T12:27:59.763Z,1.15
2018-03-26T12:28:59.674Z,1.3
2018-03-26T12:29:59.693Z,1.15
2018-03-26T12:30:59.685Z,1.13
2018-03-26T12:31:59.732Z,1.24
2018-03-26T12:32:59.704Z,1.31
2018-03-26T12:33:59.690Z,1.32
2018-03-26T12:34:59.677Z,1.34
2018-03-26T12:35:59.681Z,1.2
2018-03-26T12:36:59.744Z,1.24
2018-03-26T12:37:59.667Z,1.28
2018-03-26T12:38:59.708Z,1.3
2018-03-26T12:39:59.981Z,1.4
2018-03-26T12:40:59.678Z,1.51
2018-03-26T12:41:59.677Z,1.47
2018-03-26T12:42:59.695Z,1.43
2018-03-26T12:43:59.661Z,1.31
2018-03-26T12:44:59.675Z,1.35
2018-03-26T12:45:59.674Z,1.16
2018-03-26T12:46:59.722Z,1.18
2018-03-26T12:47:59.654Z,1.08
2018-03-26T12:48:59.673Z,1.29
2018-03-26T12:49:59.647Z,1.2
2018-03-26T12:50:59.645Z,1.37
2018-03-26T12:51:59.661Z,0.96
2018-03-26T12:52:59.642Z,0.96
2018-03-26T12:53:59.642Z,1.07
2018-03-26T12:54:59.650Z,1.15
2018-03-26T12:55:59.643Z,1.02
2018-03-26T12:56:59.644Z,0.96
2018-03-26T12:57:59.637Z,1.11
2018-03-26T12:58:59.729Z,1.08
2018-03-26T12:59:59.807Z,1.09
2018-03-26T13:00:59.629Z,1.14
2018-03-26T13:01:59.658Z,1.11
2018-03-26T13:02:59.638Z,0.73
2018-03-26T13:03:59.640Z,0.76
2018-03-26T13:04:59.629Z,0.98
2018-03-26T13:05:59.644Z,1.13
2018-03-26T13:06:59.614Z,1.09
2018-03-26T13:07:59.633Z,1.23
2018-03-26T13:08:59.610Z,1.06
2018-03-26T13:09:59.617Z,1.13
2018-03-26T13:10:59.635Z,1.12
2018-03-26T13:11:59.663Z,1.14
2018-03-26T13:12:59.609Z,1.14
2018-03-26T13:13:59.615Z,1.04
2018-03-26T13:14:59.620Z,1.01
2018-03-26T13:15:59.605Z,1.05
2018-03-26T13:16:59.604Z,0.95
2018-03-26T13:17:59.601Z,1.03
2018-03-26T13:18:59.603Z,0.89
2018-03-26T13:19:59.614Z,0.98
2018-03-26T13:20:59.621Z,0.94
2018-03-26T13:21:59.619Z,0.93
2018-03-26T13:22:59.597Z,1.05
2018-03-26T13:23:59.609Z,1.08
2018-03-26T13:24:59.590Z,1.09
2018-03-26T13:25:59.599Z,1.07
2018-03-26T13:26:59.638Z,0.94
2018-03-26T13:27:59.589Z,0.94
2018-03-26T13:28:59.606Z,0.78
2018-03-26T13:57:20.608Z,1.03
2018-03-26T13:58:20.393Z,0.86
2018-03-26T13:59:20.349Z,1.03
2018-03-26T14:00:20.384Z,0.93
2018-03-26T14:01:20.344Z,1.04
2018-03-26T14:02:20.353Z,1.02
2018-03-26T14:03:20.339Z,1.12
2018-03-26T14:04:20.337Z,0.86
2018-03-26T14:05:20.352Z,1.07
2018-03-26T14:06:20.344Z,1.11
2018-03-26T14:07:20.511Z,1.04
2018-03-26T14:08:20.329Z,1.14
2018-03-26T14:09:20.334Z,1.12
2018-03-26T14:10:20.332Z,0.93
2018-03-26T14:11:20.361Z,0.96
2018-03-26T14:12:20.319Z,1.16
2018-03-26T14:13:20.314Z,1.14
2018-03-26T14:14:20.328Z,1.17
2018-03-26T14:15:20.318Z,1.33
2018-03-26T14:16:20.363Z,1.24
2018-03-26T14:17:20.312Z,1.07
2018-03-26T14:18:20.355Z,1.16
2018-03-26T14:19:20.298Z,1.18
2018-03-26T14:20:20.310Z,1.21
2018-03-26T14:21:20.317Z,1.31
2018-03-26T14:22:20.305Z,1.38
2018-03-26T14:23:20.303Z,1.35
2018-03-26T14:24:20.290Z,1.28
2018-03-26T14:25:20.296Z,1.3
2018-03-26T14:26:20.318Z,1.17
2018-03-26T14:27:20.370Z,1.3
2018-03-26T14:28:20.302Z,1.42
2018-03-26T14:29:20.346Z,1.55
2018-03-26T14:30:20.300Z,1.45
2018-03-26T14:31:20.297Z,1.25
2018-03-26T14:32:20.332Z,1.12
2018-03-26T14:33:20.357Z,1.07
2018-03-26T14:34:20.280Z,1.12
2018-03-26T14:35:20.309Z,1.15
2018-03-26T14:36:20.316Z,1.2
2018-03-26T14:37:20.348Z,1.31
2018-03-26T14:38:20.299Z,1.31
2018-03-26T14:39:20.537Z,1.08
2018-03-26T14:40:20.284Z,1.28
2018-03-26T14:41:20.307Z,1.1
2018-03-26T14:42:20.360Z,1.1
2018-03-26T14:43:20.296Z,1.21
2018-03-26T14:44:20.304Z,1.16
2018-03-26T14:45:20.277Z,1.18
2018-03-26T14:46:20.278Z,1.42
2018-03-26T14:47:20.265Z,1.31
2018-03-26T14:48:20.262Z,1.29
2018-03-26T14:49:20.304Z,1.29
2018-03-26T14:50:20.406Z,1.07
2018-03-26T14:51:20.264Z,0.54
2018-03-26T14:52:20.263Z,0.21
2018-03-26T14:53:20.289Z,0.28
2018-03-26T14:54:20.289Z,0.58
2018-03-26T14:55:20.270Z,0.54
2018-03-26T14:56:20.652Z,0.67
2018-03-26T14:57:20.258Z,0.79
2018-03-26T14:58:20.317Z,0.78
2018-03-26T14:59:20.259Z,0.78
2018-03-26T15:00:20.267Z,0.87
2018-03-26T15:01:20.291Z,0.85
2018-03-26T15:02:20.266Z,0.8
2018-03-26T15:03:20.236Z,0.82
2018-03-26T15:04:20.232Z,0.78
2018-03-26T15:05:20.237Z,0.79
2018-03-26T15:06:20.251Z,0.95
2018-03-26T15:07:20.257Z,0.78
2018-03-26T15:08:20.229Z,1.2
2018-03-26T15:09:20.272Z,0.86
2018-03-26T15:10:20.248Z,0.74
2018-03-26T15:11:20.266Z,1.08
2018-03-26T15:12:20.228Z,1.15
2018-03-26T15:13:20.242Z,0.94
2018-03-26T15:14:20.239Z,1.1
2018-03-26T15:15:20.241Z,0.51
2018-03-26T15:16:20.311Z,0.73
2018-03-26T15:17:20.234Z,0.61
2018-03-26T15:18:20.225Z,0.55
2018-03-26T15:19:20.228Z,0.99
2018-03-26T15:20:20.476Z,0.83
2018-03-26T15:21:20.247Z,0.81
2018-03-26T15:22:20.249Z,0.79
2018-03-26T15:23:20.208Z,0.74
2018-03-26T15:24:20.207Z,0.57
2018-03-26T15:25:20.259Z,0.73
2018-03-26T15:26:20.212Z,1.01
2018-03-26T15:27:20.713Z,0.94
2018-03-26T15:28:20.211Z,0.96
2018-03-26T15:29:20.278Z,0.5
2018-03-26T15:30:20.214Z,0.55
2018-03-26T15:31:20.532Z,0.63
2018-03-26T15:32:20.193Z,0.56
2018-03-26T15:33:20.204Z,0.83
2018-03-26T15:34:20.201Z,0.9
2018-03-26T15:35:20.218Z,0.9
2018-03-26T15:36:20.209Z,0.84
2018-03-26T15:37:20.205Z,0.8
2018-03-26T15:38:21.178Z,0.59
2018-03-26T15:39:20.221Z,1.14
2018-03-26T15:40:20.272Z,1.08
2018-03-26T15:41:20.220Z,1.17
2018-03-26T15:42:20.234Z,0.93
2018-03-26T15:43:20.207Z,0.73
2018-03-26T15:44:20.313Z,0.75
2018-03-26T15:45:20.288Z,0.87